الصفحة الرئيسية
METAR-TAF:

METAR-TAF

مطار :

مطار مالابو

مالابو, غينيا الاستوائية

دائرة عرض: 03-45-18N, خط طول: 08-42-31E, ارتفاع: 23 متر

مراقبة الطقس الحالي

تاريخ ووقت الإصدار 1ساعة و 2 دقيقة قبل الساعة 01:00UTC
ريح 2 عقدة من الجنوب الغربي
درجة الحرارة 24°درجة مئوية
الرطوبة 89%
ضغط 1013 hPa
الرؤية 10 كم أو أكثر
غيوم قليلة على ارتفاع 1200 قدم

METAR: FGSL 260100Z 23002KT 9999 FEW012 24/22 Q1013 NOSIG

زمن: 03:02 (02:02 UTC)

توقعات

تاريخ ووقت الإصدار 3ساعات و 2 دقيقة قبل الساعة 23:00UTC
التوقعات صالحة من26 الساعة 00 UTC إلى 27 الساعة 06 UTC
ريح 3 عقدة من الغرب
الرؤية 10 كم أو أكثر
غيوم قليلة على ارتفاع 1200 قدم
نظرية الاحتمالات 30% :
مؤقت
من 26 الساعة 12 UTC إلى 26 الساعة 17 UTC
غيوم مفككة على ارتفاع 900 قدم
غيوم قليلة على ارتفاع 1800 قدم, مزنة ركامية.
عاصفة رعدية,

TAF: FGSL 252300Z 2600/2706 26003KT 9999 FEW012 PROB30 TEMPO 2612/2617 TS BKN009 FEW018CB

أرصاد الطقس والتوقعات من أكثر من 4000 مطار (تقارير الطقس للمطار METAR والتنبؤ بالطقس بالمطارTAF).

المحطات المتاحة هي النقط الصفراء والحمراء على الخريطة.

حرك المؤشر فوق النقطة لمعرفة اسم المحطة.

ثم انقر لمعرفة أرصاد وتوقعات الطقس.

لتغيير الخارطة: اضغط على الأزرار الخضراء مع رمز الصليب الأسود للتكبير. على الزر الأخضر مع شرطة للتصغير، أو على الأسهم الخضراء للخرائط المجاورة.


METAR-TAF: